• Join FlightAware (Why Join?)
  • Login
  • US Flag 
02:42PM EDT


 

Airport Tracker/Info


-or-


 

Live Flight TrackerFlight Track Log ✈ AWI3801 ✈ 02-May-2012 ✈ KPHL - KPWM

Flight Track Log - Related Links

Times and Time Zones

All times are in EDT time to prevent confusion due to time zone crossing. See the AWI3801 flight status page for this flight to view local times or setup timezone preferences in your user account.

Time Position Orientation Groundspeed Altitude Reporting Facility
EDT Latitude Longitude Course Direction KTS MPH feet Rate Location/Type
02:37PM 39.8579 -75.2072 323° Northwest  Level FlightAware Approximate
02:38PM 39.8750 -75.2239 82° East 131 151 600  Level FAA TRACON SMA TRACON (SMA)
02:38PM 39.8789 -75.1875 93° East 158 182 1,900 1,620 Climbing FAA TRACON SMA TRACON (SMA)
02:39PM 39.8769 -75.1386 105° East 237 273 2,800 1,680 Climbing FAA TRACON SMA TRACON (SMA)
02:40PM 39.8642 -75.0753 105° East 270 311 4,200 2,340 Climbing FAA TRACON SMA TRACON (SMA)
02:40PM 39.8503 -75.0075 104° East 280 322 6,000 2,580 Climbing FAA TRACON SMA TRACON (SMA)
02:41PM 39.8381 -74.9447 104° East 291 335 7,600 2,580 Climbing FAA TRACON SMA TRACON (SMA)
02:42PM 39.8233 -74.8703 104° East 303 349 9,400 2,520 Climbing FAA TRACON SMA TRACON (SMA)
02:42PM 39.8086 -74.7958 104° East 308 354 11,000 2,220 Climbing FAA TRACON SMA TRACON (SMA)
02:43PM 39.7956 -74.7267 87° East 321 369 12,400 1,980 Climbing FAA TRACON SMA TRACON (SMA)
02:44PM 39.7989 -74.6464 84° East 328 377 13,700 1,980 Climbing FAA TRACON SMA TRACON (SMA)
02:44PM 39.8058 -74.5656 84° East 326 375 15,100 1,800 Climbing FAA TRACON SMA TRACON (SMA)
02:45PM 39.8117 -74.4911 84° East 336 387 16,100 1,620 Climbing FAA TRACON SMA TRACON (SMA)
02:46PM 39.8181 -74.4067 91° East 341 392 17,300 1,200 Climbing FAA TRACON SMA TRACON (SMA)
02:46PM 39.8169 -74.3483 82° East 349 402 17,700 1,080 Climbing FAA TRACON SMA TRACON (SMA)
02:48PM 39.8411 -74.1289 74° East 352 405 19,800 1,260 Climbing Boston Center
02:49PM 39.8703 -73.9997 51° Northeast 358 412 21,100 1,200 Climbing Boston Center
02:50PM 39.9342 -73.8958 39° Northeast 353 406 22,300 1,140 Climbing Boston Center
02:51PM 40.0144 -73.8108 40° Northeast 353 406 23,400 1,200 Climbing Boston Center
02:52PM 40.0903 -73.7283 41° Northeast 353 406 24,700 1,080 Climbing Boston Center
02:53PM 40.1664 -73.6431 41° Northeast 359 413 25,600 900 Climbing Boston Center
02:54PM 40.2486 -73.5492 39° Northeast 366 421 26,600 900 Climbing Boston Center
02:55PM 40.3347 -73.4583 40° Northeast 378 435 27,400 780 Climbing Boston Center
02:56PM 40.4189 -73.3669 40° Northeast 385 443 28,200 780 Climbing Boston Center
02:57PM 40.5050 -73.2725 39° Northeast 385 443 29,000 -180 Climbing Boston Center
02:58PM 40.5911 -73.1806 39° Northeast 390 449 27,900 -1,020 Descending Boston Center
02:59PM 40.6833 -73.0806 42° Northeast 401 461 27,000 -480 Descending Boston Center
03:00PM 40.7694 -72.9772 39° Northeast 406 467 27,000  Level Boston Center
03:01PM 40.8553 -72.8847 42° Northeast 411 473 27,000  Level Boston Center
03:02PM 40.9411 -72.7836 43° Northeast 411 473 27,000  Level Boston Center
03:03PM 41.0267 -72.6794 43° Northeast 411 473 27,000  Level Boston Center
03:04PM 41.1083 -72.5778 43° Northeast 411 473 27,000  Level Boston Center
03:05PM 41.1917 -72.4731 44° Northeast 405 466 27,000  Level Boston Center
03:06PM 41.2811 -72.3600 42° Northeast 400 460 27,000  Level Boston Center
03:07PM 41.3583 -72.2658 44° Northeast 400 460 27,000  Level Boston Center
03:08PM 41.4414 -72.1603 42° Northeast 400 460 27,000  Level Boston Center
03:09PM 41.5264 -72.0575 44° Northeast 400 460 27,000  Level Boston Center
03:10PM 41.6075 -71.9542 44° Northeast 400 460 27,000  Level Boston Center
03:11PM 41.6903 -71.8481 44° Northeast 400 460 27,000  Level Boston Center
03:12PM 41.7731 -71.7414 43° Northeast 395 455 27,000  Level Boston Center
03:13PM 41.8578 -71.6344 42° Northeast 395 455 27,000  Level Boston Center
03:14PM 41.9486 -71.5244 43° Northeast 401 461 27,000  Level Boston Center
03:15PM 42.0331 -71.4200 45° Northeast 401 461 27,000  Level Boston Center
03:16PM 42.1114 -71.3150 44° Northeast 401 461 27,000  Level Boston Center
03:17PM 42.1936 -71.2072 44° Northeast 401 461 27,000 -960 Level Boston Center
03:18PM 42.2819 -71.0931 42° Northeast 408 470 25,100 -1,500 Descending Boston Center
03:19PM 42.3703 -70.9844 32° Northeast 419 482 24,000 -600 Descending Boston Center
03:20PM 42.4608 -70.9064 32° Northeast 409 471 24,000 -240 Level Boston Center
03:21PM 42.5392 -70.8394 32° Northeast 404 465 23,600 -1,440 Descending Boston Center
03:22PM 42.6544 -70.7433 33° Northeast 404 465 21,200 -2,100 Descending Boston Center
03:23PM 42.7306 -70.6764 32° Northeast 404 465 19,500 -1,980 Descending Boston Center
03:24PM 42.8458 -70.5767 32° Northeast 404 465 17,300 -2,100 Descending Boston Center
03:25PM 42.9342 -70.5003 32° Northeast 404 465 15,400 -2,040 Descending Boston Center
03:26PM 43.0347 -70.4147 32° Northeast 404 465 13,300 -2,040 Descending Boston Center
03:27PM 43.1147 -70.3467 North 382 440 11,400 -1,380 Descending Boston Center
03:28PM 43.2186 -70.3231 356° North 342 394 10,600 -1,080 Descending Boston Center
03:29PM 43.2875 -70.3294 335° Northwest 295 339 9,300 -1,680 Descending Boston Center
03:30PM 43.3592 -70.3756 335° Northwest 261 300 7,300 -2,340 Descending Boston Center
03:31PM 43.4139 -70.4108 335° Northwest 251 289 4,700 -1,680 Descending Boston Center
03:32PM 43.4772 -70.4517 333° Northwest 241 277 4,000 -360 Descending Boston Center
03:33PM 43.5194 -70.4817 334° Northwest 201 231 4,000 -60 Level Boston Center
03:34PM 43.5764 -70.5200 336° Northwest 201 231 3,900 -540 Descending Boston Center
03:35PM 43.6206 -70.5472 336° Northwest 201 231 3,000 -900 Descending Boston Center